Eurocargo Bari — ICMQ — position and weather

sailwx.info

Track history (hours):
 
Tides and Currents Weather Stations Pressure Air Temp Water Temp Dewpoint Dewpoint Depression Visibility Wind Speed Wind Dir Waves Ship Positions

Eurocargo Bari

Last reported at 2018-Jul-22 21:14 UTC. Time now 2018-Jul-23 02:10 UTC.
Position N 40°00' E 002°50'.

Length 200 m; draft 7.4 m.

Type: Ship (hazmat cat A). MMSI: 247320400.

Date/timePositionNaut miles runAvg speedWind from/ knotsBaromVisibWave heightAir tempDewpointWater temp
2018-Jul-22 21:14N 40°00' E 002°50'919.0
2018-Jul-22 20:46N 39°58' E 002°38'13318.3
2018-Jul-22 13:31N 39°38' W 000°12'011.9
2018-Jul-22 13:31N 39°38' W 000°12'1 0.1
2018-Jul-22 00:49N 39°38' W 000°13'2 5.8
2018-Jul-22 00:27N 39°37' W 000°11'12018.6
2018-Jul-21 17:58N 39°56' E 002°23'918.7
2018-Jul-21 17:30N 39°58' E 002°34'1118.8
2018-Jul-21 16:56N 39°60' E 002°48'30619.4
2018-Jul-21 01:13N 41°19' E 009°17'520.3
2018-Jul-21 00:59N 41°21' E 009°22'1020.6
2018-Jul-21 00:31N 41°25' E 009°34'1020.2
2018-Jul-21 00:01N 41°29' E 009°46'1019.9
2018-Jul-20 23:31N 41°33' E 009°59'1019.8
2018-Jul-20 23:00N 41°37' E 010°11'1020.1
2018-Jul-20 22:31N 41°41' E 010°23'1020.2
2018-Jul-20 22:00N 41°45' E 010°36'1020.2
2018-Jul-20 21:30N 41°49' E 010°48'1020.2
2018-Jul-20 21:01N 41°52' E 011°01'1019.9
2018-Jul-20 20:30N 41°56' E 011°13'1220.1
2018-Jul-20 19:55N 42°01' E 011°28'919.2
2018-Jul-20 19:26N 42°05' E 011°39'2 0.4
2018-Jul-20 14:16N 42°04' E 011°42'2519.3
2018-Jul-20 12:57N 41°44' E 012°03'1520.7
2018-Jul-20 12:14N 41°33' E 012°17'1320.8
2018-Jul-20 11:37N 41°25' E 012°30'320.7
2018-Jul-20 11:29N 41°23' E 012°33'1020.7
2018-Jul-20 11:00N 41°18' E 012°44'1020.7
2018-Jul-20 10:30N 41°11' E 012°54'1020.8
2018-Jul-20 10:00N 41°05' E 013°06'1020.8
2018-Jul-20 09:30N 40°59' E 013°17'1020.7
2018-Jul-20 09:00N 40°53' E 013°28'1020.6
2018-Jul-20 08:30N 40°46' E 013°39'1120.5
2018-Jul-20 07:59N 40°40' E 013°49'1020.7
2018-Jul-20 07:30N 40°35' E 014°01'1020.5
2018-Jul-20 07:00N 40°30' E 014°13'1021.0
2018-Jul-20 06:30N 40°32' E 014°26'1020.6
2018-Jul-20 06:00N 40°36' E 014°39'5 0.5
2018-Jul-19 19:31N 40°39' E 014°44'415.4
2018-Jul-19 19:17N 40°36' E 014°41'518.8
2018-Jul-19 19:00N 40°34' E 014°35'1020.2
2018-Jul-19 18:30N 40°32' E 014°22'1119.6
2018-Jul-19 17:58N 40°31' E 014°08'1020.9
2018-Jul-19 17:30N 40°36' E 013°57'1121.0
2018-Jul-19 17:00N 40°42' E 013°45'1021.0
2018-Jul-19 16:30N 40°48' E 013°34'1020.8
2018-Jul-19 16:00N 40°55' E 013°23'1020.7
2018-Jul-19 15:30N 40°59' E 013°11'1020.7
2018-Jul-19 15:00N 41°03' E 012°58'1020.3
2018-Jul-19 14:30N 41°09' E 012°47'2020.3
2018-Jul-19 13:30N 41°23' E 012°28'1020.4
2018-Jul-19 13:00N 41°31' E 012°19'1020.5
2018-Jul-19 12:30N 41°38' E 012°10'1120.6
2018-Jul-19 12:00N 41°46' E 012°00'23 3.5
2018-Jul-19 05:26N 42°05' E 011°43'1017.5
2018-Jul-19 04:52N 42°01' E 011°30'718.9
2018-Jul-19 04:31N 41°58' E 011°22'918.9
2018-Jul-19 04:00N 41°55' E 011°10'1019.0
2018-Jul-19 03:30N 41°51' E 010°58'918.9
2018-Jul-19 03:00N 41°47' E 010°47'918.8
2018-Jul-19 02:30N 41°44' E 010°35'918.7
2018-Jul-19 02:00N 41°40' E 010°23'919.0
2018-Jul-19 01:31N 41°37' E 010°12'1019.1
2018-Jul-19 01:00N 41°33' E 009°60'1019.2
2018-Jul-19 00:29N 41°30' E 009°47'919.2
2018-Jul-19 00:00N 41°26' E 009°36'919.0
2018-Jul-18 23:31N 41°22' E 009°24'4519.4
2018-Jul-18 21:13N 41°13' E 008°26'720.3
2018-Jul-18 20:52N 41°11' E 008°17'720.4
2018-Jul-18 20:30N 41°09' E 008°08'1920.3
2018-Jul-18 19:35N 41°03' E 007°44'920.3
2018-Jul-18 19:07N 41°00' E 007°33'4020.3
2018-Jul-18 17:08N 40°48' E 006°42'220.1
2018-Jul-18 17:00N 40°47' E 006°39'1120.0
2018-Jul-18 16:29N 40°44' E 006°26'1019.7
2018-Jul-18 15:59N 40°41' E 006°13'919.7
2018-Jul-18 15:30N 40°38' E 006°01'1020.0
2018-Jul-18 15:00N 40°35' E 005°49'1119.9
2018-Jul-18 14:26N 40°31' E 005°35'2019.7
2018-Jul-18 13:27N 40°25' E 005°10'919.7
2018-Jul-18 13:00N 40°23' E 004°60'10219.8
2018-Jul-18 07:52N 40°00' E 002°50'919.7
2018-Jul-18 07:26N 39°58' E 002°39'13318.5
2018-Jul-18 00:14N 39°38' W 000°13'1 0.1
2018-Jul-17 11:21N 39°38' W 000°13'12017.9
2018-Jul-17 04:40N 41°00' E 001°42'319.5
2018-Jul-17 04:31N 41°02' E 001°45'1019.2
2018-Jul-17 04:00N 41°08' E 001°55'919.0
2018-Jul-17 03:31N 41°13' E 002°05'714.6
2018-Jul-17 03:00N 41°20' E 002°10'2 3.8
2018-Jul-17 02:28N 41°22' E 002°10'0 0.0
2018-Jul-17 01:58N 41°22' E 002°11'0 0.0
2018-Jul-17 01:28N 41°22' E 002°11'0 0.0
2018-Jul-17 00:58N 41°22' E 002°10'0 0.5
2018-Jul-17 00:30N 41°21' E 002°11'9 9.4
2018-Jul-16 23:30N 41°15' E 002°20'35919.0
2018-Jul-16 04:38N 41°40' E 010°19'320.3
2018-Jul-16 04:30N 41°41' E 010°22'1119.9
2018-Jul-16 03:58N 41°45' E 010°35'1420.0
2018-Jul-16 03:14N 41°50' E 010°53'919.7
2018-Jul-16 02:48N 41°54' E 011°04'1119.8
2018-Jul-16 02:14N 41°58' E 011°18'620.0
2018-Jul-16 01:54N 42°01' E 011°26'1219.2
2018-Jul-16 01:18N 42°05' E 011°40'9 1.0
2018-Jul-15 16:24N 41°57' E 011°45'819.2
2018-Jul-15 16:00N 41°51' E 011°52'1019.8
2018-Jul-15 15:31N 41°44' E 012°01'1419.8
2018-Jul-15 14:49N 41°34' E 012°14'620.0
2018-Jul-15 14:30N 41°30' E 012°20'1019.9
2018-Jul-15 14:01N 41°23' E 012°29'1019.9
2018-Jul-15 13:30N 41°15' E 012°38'1019.7
2018-Jul-15 13:00N 41°08' E 012°47'1019.8
2018-Jul-15 12:30N 41°04' E 012°59'1019.8
2018-Jul-15 12:00N 40°59' E 013°10'1020.0
2018-Jul-15 11:30N 40°55' E 013°22'1019.8
2018-Jul-15 11:00N 40°50' E 013°33'1019.7
2018-Jul-15 10:30N 40°43' E 013°43'1019.6
2018-Jul-15 10:00N 40°38' E 013°54'1020.2
2018-Jul-15 09:30N 40°33' E 014°06'1019.1
2018-Jul-15 08:59N 40°31' E 014°19'1019.8
2018-Jul-15 08:29N 40°33' E 014°31'8 1.0
2018-Jul-15 00:08N 40°37' E 014°41'217.5
2018-Jul-15 00:00N 40°36' E 014°38'918.8
2018-Jul-14 23:30N 40°32' E 014°27'1019.5
2018-Jul-14 23:00N 40°30' E 014°14'919.1
2018-Jul-14 22:30N 40°31' E 014°02'1019.4
2018-Jul-14 22:01N 40°33' E 013°50'1019.6
2018-Jul-14 21:30N 40°36' E 013°37'1019.8
2018-Jul-14 21:00N 40°38' E 013°25'1019.8
2018-Jul-14 20:30N 40°40' E 013°12'1019.7
2018-Jul-14 20:00N 40°42' E 012°59'1019.6
2018-Jul-14 19:30N 40°44' E 012°46'1019.6
2018-Jul-14 19:00N 40°46' E 012°34'1019.6
2018-Jul-14 18:30N 40°48' E 012°21'1019.7
2018-Jul-14 18:00N 40°51' E 012°09'1019.7
2018-Jul-14 17:30N 40°53' E 011°56'1019.7
2018-Jul-14 17:00N 40°55' E 011°43'1020.0
2018-Jul-14 16:30N 40°57' E 011°30'1019.7
2018-Jul-14 16:00N 40°59' E 011°17'1019.6
2018-Jul-14 15:30N 41°02' E 011°05'3019.9
2018-Jul-14 14:00N 41°09' E 010°27'1019.7
2018-Jul-14 13:30N 41°12' E 010°14'1019.7
2018-Jul-14 13:00N 41°14' E 010°01'1219.6
2018-Jul-14 12:23N 41°17' E 009°45'719.6
2018-Jul-14 12:00N 41°20' E 009°36'919.1
2018-Jul-14 11:30N 41°22' E 009°24'9718.1
2018-Jul-14 06:10N 41°19' E 007°15'319.4
2018-Jul-14 06:00N 41°19' E 007°11'1019.5
2018-Jul-14 05:30N 41°19' E 006°58'1019.3
2018-Jul-14 05:00N 41°18' E 006°45'1019.2
2018-Jul-14 04:30N 41°18' E 006°32'1019.2
2018-Jul-14 04:00N 41°18' E 006°19'1019.1
2018-Jul-14 03:30N 41°18' E 006°07'1019.3
2018-Jul-14 03:00N 41°18' E 005°54'1019.5
2018-Jul-14 02:30N 41°18' E 005°41'1019.7
2018-Jul-14 02:00N 41°18' E 005°28'1019.8
2018-Jul-14 01:30N 41°18' E 005°15'1019.8
2018-Jul-14 01:00N 41°18' E 005°01'1019.7
2018-Jul-14 00:30N 41°18' E 004°48'1019.6
2018-Jul-14 00:00N 41°18' E 004°35'1019.5
2018-Jul-13 23:30N 41°17' E 004°22'1019.6
2018-Jul-13 23:00N 41°17' E 004°09'1019.5
2018-Jul-13 22:30N 41°17' E 003°56'1019.5
2018-Jul-13 22:00N 41°16' E 003°43'2719.5
2018-Jul-13 20:36N 41°16' E 003°07'219.5
2018-Jul-13 20:30N 41°16' E 003°05'1019.3
2018-Jul-13 20:00N 41°17' E 002°52'1019.4
2018-Jul-13 19:30N 41°17' E 002°39'1019.6
2018-Jul-13 19:00N 41°17' E 002°26'918.6
2018-Jul-13 18:30N 41°16' E 002°13'510.2
2018-Jul-13 18:00N 41°21' E 002°10'1 2.0
2018-Jul-13 17:30N 41°22' E 002°11'0 0.0
2018-Jul-13 16:54N 41°22' E 002°11'0 0.0
2018-Jul-13 16:30N 41°22' E 002°11'0 0.0
2018-Jul-13 13:57N 41°22' E 002°11'1 2.1
2018-Jul-13 13:30N 41°21' E 002°10'5 9.2
2018-Jul-13 13:00N 41°16' E 002°11'816.9
2018-Jul-13 12:30N 41°11' E 002°02'1020.0
2018-Jul-13 12:00N 41°06' E 001°51'1020.4
2018-Jul-13 11:30N 40°60' E 001°40'11818.6
2018-Jul-13 05:09N 39°38' W 000°13'  
Track history (hours):
 
Tides and Currents Weather Stations Pressure Air Temp Water Temp Dewpoint Dewpoint Depression Visibility Wind Speed Wind Dir Waves Ship Positions

Eurocargo Bari

Last reported at 2018-Jul-22 21:14 UTC. Time now 2018-Jul-23 02:10 UTC.
Position N 40°00' E 002°50'.

Length 200 m; draft 7.4 m.

Type: Ship (hazmat cat A). MMSI: 247320400.

Date/timePositionNaut miles runAvg speedWind from/ knotsBaromVisibWave heightAir tempDewpointWater temp
2018-Jul-22 21:14N 40°00' E 002°50'919.0
2018-Jul-22 20:46N 39°58' E 002°38'13318.3
2018-Jul-22 13:31N 39°38' W 000°12'011.9
2018-Jul-22 13:31N 39°38' W 000°12'1 0.1
2018-Jul-22 00:49N 39°38' W 000°13'2 5.8
2018-Jul-22 00:27N 39°37' W 000°11'12018.6
2018-Jul-21 17:58N 39°56' E 002°23'918.7
2018-Jul-21 17:30N 39°58' E 002°34'1118.8
2018-Jul-21 16:56N 39°60' E 002°48'30619.4
2018-Jul-21 01:13N 41°19' E 009°17'520.3
2018-Jul-21 00:59N 41°21' E 009°22'1020.6
2018-Jul-21 00:31N 41°25' E 009°34'1020.2
2018-Jul-21 00:01N 41°29' E 009°46'1019.9
2018-Jul-20 23:31N 41°33' E 009°59'1019.8
2018-Jul-20 23:00N 41°37' E 010°11'1020.1
2018-Jul-20 22:31N 41°41' E 010°23'1020.2
2018-Jul-20 22:00N 41°45' E 010°36'1020.2
2018-Jul-20 21:30N 41°49' E 010°48'1020.2
2018-Jul-20 21:01N 41°52' E 011°01'1019.9
2018-Jul-20 20:30N 41°56' E 011°13'1220.1
2018-Jul-20 19:55N 42°01' E 011°28'919.2
2018-Jul-20 19:26N 42°05' E 011°39'2 0.4
2018-Jul-20 14:16N 42°04' E 011°42'2519.3
2018-Jul-20 12:57N 41°44' E 012°03'1520.7
2018-Jul-20 12:14N 41°33' E 012°17'1320.8
2018-Jul-20 11:37N 41°25' E 012°30'320.7
2018-Jul-20 11:29N 41°23' E 012°33'1020.7
2018-Jul-20 11:00N 41°18' E 012°44'1020.7
2018-Jul-20 10:30N 41°11' E 012°54'1020.8
2018-Jul-20 10:00N 41°05' E 013°06'1020.8
2018-Jul-20 09:30N 40°59' E 013°17'1020.7
2018-Jul-20 09:00N 40°53' E 013°28'1020.6
2018-Jul-20 08:30N 40°46' E 013°39'1120.5
2018-Jul-20 07:59N 40°40' E 013°49'1020.7
2018-Jul-20 07:30N 40°35' E 014°01'1020.5
2018-Jul-20 07:00N 40°30' E 014°13'1021.0
2018-Jul-20 06:30N 40°32' E 014°26'1020.6
2018-Jul-20 06:00N 40°36' E 014°39'5 0.5
2018-Jul-19 19:31N 40°39' E 014°44'415.4
2018-Jul-19 19:17N 40°36' E 014°41'518.8
2018-Jul-19 19:00N 40°34' E 014°35'1020.2
2018-Jul-19 18:30N 40°32' E 014°22'1119.6
2018-Jul-19 17:58N 40°31' E 014°08'1020.9
2018-Jul-19 17:30N 40°36' E 013°57'1121.0
2018-Jul-19 17:00N 40°42' E 013°45'1021.0
2018-Jul-19 16:30N 40°48' E 013°34'1020.8
2018-Jul-19 16:00N 40°55' E 013°23'1020.7
2018-Jul-19 15:30N 40°59' E 013°11'1020.7
2018-Jul-19 15:00N 41°03' E 012°58'1020.3
2018-Jul-19 14:30N 41°09' E 012°47'2020.3
2018-Jul-19 13:30N 41°23' E 012°28'1020.4
2018-Jul-19 13:00N 41°31' E 012°19'1020.5
2018-Jul-19 12:30N 41°38' E 012°10'1120.6
2018-Jul-19 12:00N 41°46' E 012°00'23 3.5
2018-Jul-19 05:26N 42°05' E 011°43'1017.5
2018-Jul-19 04:52N 42°01' E 011°30'718.9
2018-Jul-19 04:31N 41°58' E 011°22'918.9
2018-Jul-19 04:00N 41°55' E 011°10'1019.0
2018-Jul-19 03:30N 41°51' E 010°58'918.9
2018-Jul-19 03:00N 41°47' E 010°47'918.8
2018-Jul-19 02:30N 41°44' E 010°35'918.7
2018-Jul-19 02:00N 41°40' E 010°23'919.0
2018-Jul-19 01:31N 41°37' E 010°12'1019.1
2018-Jul-19 01:00N 41°33' E 009°60'1019.2
2018-Jul-19 00:29N 41°30' E 009°47'919.2
2018-Jul-19 00:00N 41°26' E 009°36'919.0
2018-Jul-18 23:31N 41°22' E 009°24'4519.4
2018-Jul-18 21:13N 41°13' E 008°26'720.3
2018-Jul-18 20:52N 41°11' E 008°17'720.4
2018-Jul-18 20:30N 41°09' E 008°08'1920.3
2018-Jul-18 19:35N 41°03' E 007°44'920.3
2018-Jul-18 19:07N 41°00' E 007°33'4020.3
2018-Jul-18 17:08N 40°48' E 006°42'220.1
2018-Jul-18 17:00N 40°47' E 006°39'1120.0
2018-Jul-18 16:29N 40°44' E 006°26'1019.7
2018-Jul-18 15:59N 40°41' E 006°13'919.7
2018-Jul-18 15:30N 40°38' E 006°01'1020.0
2018-Jul-18 15:00N 40°35' E 005°49'1119.9
2018-Jul-18 14:26N 40°31' E 005°35'2019.7
2018-Jul-18 13:27N 40°25' E 005°10'919.7
2018-Jul-18 13:00N 40°23' E 004°60'10219.8
2018-Jul-18 07:52N 40°00' E 002°50'919.7
2018-Jul-18 07:26N 39°58' E 002°39'13318.5
2018-Jul-18 00:14N 39°38' W 000°13'1 0.1
2018-Jul-17 11:21N 39°38' W 000°13'12017.9
2018-Jul-17 04:40N 41°00' E 001°42'319.5
2018-Jul-17 04:31N 41°02' E 001°45'1019.2
2018-Jul-17 04:00N 41°08' E 001°55'919.0
2018-Jul-17 03:31N 41°13' E 002°05'714.6
2018-Jul-17 03:00N 41°20' E 002°10'2 3.8
2018-Jul-17 02:28N 41°22' E 002°10'0 0.0
2018-Jul-17 01:58N 41°22' E 002°11'0 0.0
2018-Jul-17 01:28N 41°22' E 002°11'0 0.0
2018-Jul-17 00:58N 41°22' E 002°10'0 0.5
2018-Jul-17 00:30N 41°21' E 002°11'9 9.4
2018-Jul-16 23:30N 41°15' E 002°20'35919.0
2018-Jul-16 04:38N 41°40' E 010°19'320.3
2018-Jul-16 04:30N 41°41' E 010°22'1119.9
2018-Jul-16 03:58N 41°45' E 010°35'1420.0
2018-Jul-16 03:14N 41°50' E 010°53'919.7
2018-Jul-16 02:48N 41°54' E 011°04'1119.8
2018-Jul-16 02:14N 41°58' E 011°18'620.0
2018-Jul-16 01:54N 42°01' E 011°26'1219.2
2018-Jul-16 01:18N 42°05' E 011°40'9 1.0
2018-Jul-15 16:24N 41°57' E 011°45'819.2
2018-Jul-15 16:00N 41°51' E 011°52'1019.8
2018-Jul-15 15:31N 41°44' E 012°01'1419.8
2018-Jul-15 14:49N 41°34' E 012°14'620.0
2018-Jul-15 14:30N 41°30' E 012°20'1019.9
2018-Jul-15 14:01N 41°23' E 012°29'1019.9
2018-Jul-15 13:30N 41°15' E 012°38'1019.7
2018-Jul-15 13:00N 41°08' E 012°47'1019.8
2018-Jul-15 12:30N 41°04' E 012°59'1019.8
2018-Jul-15 12:00N 40°59' E 013°10'1020.0
2018-Jul-15 11:30N 40°55' E 013°22'1019.8
2018-Jul-15 11:00N 40°50' E 013°33'1019.7
2018-Jul-15 10:30N 40°43' E 013°43'1019.6
2018-Jul-15 10:00N 40°38' E 013°54'1020.2
2018-Jul-15 09:30N 40°33' E 014°06'1019.1
2018-Jul-15 08:59N 40°31' E 014°19'1019.8
2018-Jul-15 08:29N 40°33' E 014°31'8 1.0
2018-Jul-15 00:08N 40°37' E 014°41'217.5
2018-Jul-15 00:00N 40°36' E 014°38'918.8
2018-Jul-14 23:30N 40°32' E 014°27'1019.5
2018-Jul-14 23:00N 40°30' E 014°14'919.1
2018-Jul-14 22:30N 40°31' E 014°02'1019.4
2018-Jul-14 22:01N 40°33' E 013°50'1019.6
2018-Jul-14 21:30N 40°36' E 013°37'1019.8
2018-Jul-14 21:00N 40°38' E 013°25'1019.8
2018-Jul-14 20:30N 40°40' E 013°12'1019.7
2018-Jul-14 20:00N 40°42' E 012°59'1019.6
2018-Jul-14 19:30N 40°44' E 012°46'1019.6
2018-Jul-14 19:00N 40°46' E 012°34'1019.6
2018-Jul-14 18:30N 40°48' E 012°21'1019.7
2018-Jul-14 18:00N 40°51' E 012°09'1019.7
2018-Jul-14 17:30N 40°53' E 011°56'1019.7
2018-Jul-14 17:00N 40°55' E 011°43'1020.0
2018-Jul-14 16:30N 40°57' E 011°30'1019.7
2018-Jul-14 16:00N 40°59' E 011°17'1019.6
2018-Jul-14 15:30N 41°02' E 011°05'3019.9
2018-Jul-14 14:00N 41°09' E 010°27'1019.7
2018-Jul-14 13:30N 41°12' E 010°14'1019.7
2018-Jul-14 13:00N 41°14' E 010°01'1219.6
2018-Jul-14 12:23N 41°17' E 009°45'719.6
2018-Jul-14 12:00N 41°20' E 009°36'919.1
2018-Jul-14 11:30N 41°22' E 009°24'9718.1
2018-Jul-14 06:10N 41°19' E 007°15'319.4
2018-Jul-14 06:00N 41°19' E 007°11'1019.5
2018-Jul-14 05:30N 41°19' E 006°58'1019.3
2018-Jul-14 05:00N 41°18' E 006°45'1019.2
2018-Jul-14 04:30N 41°18' E 006°32'1019.2
2018-Jul-14 04:00N 41°18' E 006°19'1019.1
2018-Jul-14 03:30N 41°18' E 006°07'1019.3
2018-Jul-14 03:00N 41°18' E 005°54'1019.5
2018-Jul-14 02:30N 41°18' E 005°41'1019.7
2018-Jul-14 02:00N 41°18' E 005°28'1019.8
2018-Jul-14 01:30N 41°18' E 005°15'1019.8
2018-Jul-14 01:00N 41°18' E 005°01'1019.7
2018-Jul-14 00:30N 41°18' E 004°48'1019.6
2018-Jul-14 00:00N 41°18' E 004°35'1019.5
2018-Jul-13 23:30N 41°17' E 004°22'1019.6
2018-Jul-13 23:00N 41°17' E 004°09'1019.5
2018-Jul-13 22:30N 41°17' E 003°56'1019.5
2018-Jul-13 22:00N 41°16' E 003°43'2719.5
2018-Jul-13 20:36N 41°16' E 003°07'219.5
2018-Jul-13 20:30N 41°16' E 003°05'1019.3
2018-Jul-13 20:00N 41°17' E 002°52'1019.4
2018-Jul-13 19:30N 41°17' E 002°39'1019.6
2018-Jul-13 19:00N 41°17' E 002°26'918.6
2018-Jul-13 18:30N 41°16' E 002°13'510.2
2018-Jul-13 18:00N 41°21' E 002°10'1 2.0
2018-Jul-13 17:30N 41°22' E 002°11'0 0.0
2018-Jul-13 16:54N 41°22' E 002°11'0 0.0
2018-Jul-13 16:30N 41°22' E 002°11'0 0.0
2018-Jul-13 13:57N 41°22' E 002°11'1 2.1
2018-Jul-13 13:30N 41°21' E 002°10'5 9.2
2018-Jul-13 13:00N 41°16' E 002°11'816.9
2018-Jul-13 12:30N 41°11' E 002°02'1020.0
2018-Jul-13 12:00N 41°06' E 001°51'1020.4
2018-Jul-13 11:30N 40°60' E 001°40'11818.6
2018-Jul-13 05:09N 39°38' W 000°13'  

Dump ship's entire track history